Time;durP1;ratioP1;P1;durP2;ratioP2;P2;SDS_P1;SDS_P2;PMS_P1;PMS_P2;Temp;Humidity;BMP_temperature;BMP_pressure;BME280_temperature;BME280_humidity;BME280_pressure;Samples;Min_cycle;Max_cycle;Signal;HPM_P1;HPM_P2
2023/10/31 00:01:35;;;;;;;13.32;6.43;;;13.10;99.90;;;;;;5051333;28;20037;-87
2023/10/31 00:04:01;;;;;;;16.15;13.90;;;13.10;99.90;;;;;;5035222;28;20039;-88
2023/10/31 00:06:26;;;;;;;13.45;6.15;;;13.10;99.90;;;;;;5035797;28;20524;-88
2023/10/31 00:08:52;;;;;;;21.83;19.63;;;13.10;99.90;;;;;;5052439;28;20082;-88
2023/10/31 00:11:18;;;;;;;12.75;7.30;;;13.10;99.90;;;;;;5055392;28;20033;-88
2023/10/31 00:13:43;;;;;;;16.85;15.15;;;13.10;99.90;;;;;;5047618;28;20033;-88
2023/10/31 00:16:09;;;;;;;16.95;6.95;;;13.20;99.90;;;;;;5055612;28;20075;-88
2023/10/31 00:18:35;;;;;;;11.40;6.28;;;13.20;99.90;;;;;;5054510;28;20581;-88
2023/10/31 00:21:00;;;;;;;12.60;6.57;;;13.10;99.90;;;;;;5054609;28;20051;-88
2023/10/31 00:23:26;;;;;;;13.50;7.45;;;13.10;99.90;;;;;;5071518;28;20036;-88
2023/10/31 00:25:51;;;;;;;17.95;15.60;;;13.10;99.90;;;;;;5070741;28;20086;-88
2023/10/31 00:28:17;;;;;;;17.85;15.55;;;13.10;99.90;;;;;;5054873;28;20119;-88
2023/10/31 00:30:42;;;;;;;18.08;15.68;;;13.20;99.90;;;;;;5054449;28;20082;-88
2023/10/31 00:33:08;;;;;;;17.30;15.43;;;13.30;99.90;;;;;;5055013;28;20063;-88
2023/10/31 00:35:34;;;;;;;15.60;7.53;;;13.30;99.90;;;;;;5054393;28;20530;-88
2023/10/31 00:37:59;;;;;;;13.60;6.53;;;13.20;99.90;;;;;;5071158;28;20052;-88
2023/10/31 00:40:25;;;;;;;11.77;6.60;;;13.10;99.90;;;;;;5054725;28;20040;-88
2023/10/31 00:42:51;;;;;;;13.30;7.28;;;13.10;99.90;;;;;;5054590;28;20079;-88
2023/10/31 00:45:16;;;;;;;12.88;6.70;;;13.10;99.90;;;;;;5071290;28;20071;-88
2023/10/31 00:47:42;;;;;;;12.10;6.55;;;13.10;99.90;;;;;;5054582;28;20040;-88
2023/10/31 00:50:08;;;;;;;13.48;8.05;;;13.00;99.90;;;;;;5053968;28;20108;-87
2023/10/31 00:52:34;;;;;;;13.82;6.95;;;13.00;99.90;;;;;;5053973;28;20040;-87
2023/10/31 00:55:00;;;;;;;15.45;7.22;;;13.00;99.90;;;;;;5040364;28;20047;-87
2023/10/31 00:57:26;;;;;;;19.38;17.30;;;13.00;99.90;;;;;;5068088;28;20044;-87
2023/10/31 00:59:51;;;;;;;14.20;7.70;;;13.10;99.90;;;;;;5053890;28;20041;-88
2023/10/31 01:02:17;;;;;;;14.65;9.43;;;13.10;99.90;;;;;;5070472;28;20040;-86
2023/10/31 01:04:43;;;;;;;19.98;17.88;;;13.10;99.90;;;;;;5037310;28;20082;-88
2023/10/31 01:07:11;;;;;;;20.60;18.40;;;13.10;99.90;;;;;;5070595;28;20071;-88
2023/10/31 01:09:38;;;;;;;19.35;17.45;;;13.20;99.90;;;;;;5054012;28;20043;-88
2023/10/31 01:12:04;;;;;;;14.32;7.88;;;13.20;99.90;;;;;;5070559;28;20117;-88
2023/10/31 01:14:30;;;;;;;19.05;17.15;;;13.20;99.90;;;;;;5070461;28;20040;-88
2023/10/31 01:16:56;;;;;;;13.35;7.95;;;13.20;99.90;;;;;;5054011;28;20041;-88
2023/10/31 01:19:21;;;;;;;17.85;8.55;;;13.20;99.90;;;;;;5053618;28;20040;-87
2023/10/31 01:21:47;;;;;;;21.10;18.98;;;13.10;99.90;;;;;;5070488;28;20039;-88
2023/10/31 01:24:12;;;;;;;17.35;8.20;;;13.20;99.90;;;;;;5054081;28;20044;-88
2023/10/31 01:26:38;;;;;;;21.60;19.45;;;13.20;99.90;;;;;;5070412;28;20613;-88
2023/10/31 01:29:04;;;;;;;23.25;21.05;;;13.20;99.90;;;;;;5053822;28;20032;-88
2023/10/31 01:31:29;;;;;;;22.35;20.05;;;13.30;99.90;;;;;;5053893;28;20420;-88
2023/10/31 01:33:55;;;;;;;23.70;21.30;;;13.30;99.90;;;;;;5070310;28;20496;-88
2023/10/31 01:36:25;;;;;;;16.95;8.88;;;13.30;99.90;;;;;;5070409;28;20068;-88
2023/10/31 01:38:51;;;;;;;17.17;8.23;;;13.30;99.90;;;;;;5062812;28;20556;-87
2023/10/31 01:41:17;;;;;;;14.90;8.52;;;13.20;99.90;;;;;;5053521;28;20518;-88
2023/10/31 01:43:42;;;;;;;23.88;21.33;;;13.20;99.90;;;;;;5053782;28;20044;-88
2023/10/31 01:46:08;;;;;;;9.30;3.97;;;13.20;99.90;;;;;;5053731;28;20044;-88
2023/10/31 01:48:34;;;;;;;3.47;1.20;;;13.20;99.90;;;;;;5070274;28;20037;-88
2023/10/31 01:51:03;;;;;;;1.92;0.68;;;13.00;99.90;;;;;;5053917;28;20399;-88
2023/10/31 01:53:31;;;;;;;1.90;0.50;;;13.00;99.90;;;;;;5067086;28;20045;-88
2023/10/31 01:55:58;;;;;;;1.60;0.45;;;12.80;99.90;;;;;;5047018;28;20041;-88
2023/10/31 01:58:29;;;;;;;1.15;0.57;;;12.80;99.90;;;;;;5045358;28;20053;-88
2023/10/31 02:00:56;;;;;;;0.35;0.20;;;12.80;99.90;;;;;;5070009;28;20047;-88
2023/10/31 02:03:21;;;;;;;2.10;0.32;;;12.70;99.90;;;;;;5069905;28;20076;-88
2023/10/31 02:05:47;;;;;;;0.40;0.30;;;12.70;99.90;;;;;;5053732;28;20134;-88
2023/10/31 02:08:13;;;;;;;0.60;0.43;;;12.60;99.90;;;;;;5070379;28;20464;-88
2023/10/31 02:10:40;;;;;;;0.65;0.30;;;12.50;99.90;;;;;;5069753;28;20507;-87
2023/10/31 02:13:13;;;;;;;1.35;0.30;;;12.50;99.90;;;;;;5053800;28;20052;-88
2023/10/31 02:15:39;;;;;;;0.70;0.30;;;12.50;99.90;;;;;;5069918;28;20124;-88
2023/10/31 02:18:04;;;;;;;1.23;0.60;;;12.40;99.90;;;;;;5053438;28;20131;-89
2023/10/31 02:20:30;;;;;;;0.10;0.10;;;12.50;99.90;;;;;;5069615;28;20075;-88
2023/10/31 02:22:56;;;;;;;1.90;0.30;;;12.40;99.90;;;;;;5053342;28;20037;-88
2023/10/31 02:25:21;;;;;;;1.45;0.47;;;12.30;99.90;;;;;;5053103;28;20048;-88
2023/10/31 02:27:47;;;;;;;1.25;0.30;;;12.20;99.90;;;;;;5053438;28;20036;-88
2023/10/31 02:30:13;;;;;;;0.63;0.30;;;12.20;99.90;;;;;;5052878;28;20518;-88
2023/10/31 02:32:38;;;;;;;3.65;0.90;;;12.10;99.90;;;;;;5069804;28;20036;-88
2023/10/31 02:35:04;;;;;;;1.00;0.32;;;12.10;99.90;;;;;;5053171;28;20043;-87
2023/10/31 02:37:30;;;;;;;2.08;0.45;;;12.00;99.90;;;;;;5069880;28;20041;-87
2023/10/31 02:39:56;;;;;;;0.68;0.50;;;11.90;99.90;;;;;;5053002;28;20043;-87
2023/10/31 02:42:21;;;;;;;1.10;0.50;;;11.80;99.90;;;;;;5069558;28;20424;-87
2023/10/31 02:44:47;;;;;;;1.27;0.40;;;11.70;99.90;;;;;;5070468;28;20048;-88
2023/10/31 02:47:12;;;;;;;1.48;0.57;;;11.70;99.90;;;;;;5046893;28;20032;-88
2023/10/31 02:49:38;;;;;;;2.30;0.47;;;11.60;99.90;;;;;;5056592;28;20439;-87
2023/10/31 02:52:04;;;;;;;0.73;0.50;;;11.50;99.90;;;;;;5056659;28;20033;-88
2023/10/31 02:54:29;;;;;;;1.98;0.55;;;11.50;99.90;;;;;;5073053;28;20551;-88
2023/10/31 02:56:55;;;;;;;2.35;0.85;;;11.50;99.90;;;;;;5073454;28;20041;-88
2023/10/31 02:59:20;;;;;;;1.10;0.43;;;11.40;99.90;;;;;;5072623;28;20044;-87
2023/10/31 03:01:46;;;;;;;2.65;0.60;;;11.40;99.90;;;;;;5056546;28;20044;-87
2023/10/31 03:04:11;;;;;;;1.48;0.45;;;11.30;99.90;;;;;;5056158;28;20044;-87
2023/10/31 03:06:37;;;;;;;3.65;0.77;;;11.20;99.90;;;;;;5056134;28;20068;-87
2023/10/31 03:09:03;;;;;;;1.23;0.47;;;11.20;99.90;;;;;;5055471;28;20032;-87
2023/10/31 03:11:29;;;;;;;7.93;1.50;;;11.10;99.90;;;;;;5071955;28;20450;-87
2023/10/31 03:13:56;;;;;;;1.88;0.52;;;11.20;99.90;;;;;;5072229;28;20499;-87
2023/10/31 03:16:22;;;;;;;1.92;0.65;;;11.10;99.90;;;;;;5063778;28;20041;-87
2023/10/31 03:18:47;;;;;;;1.70;0.63;;;11.00;99.90;;;;;;5035941;28;20044;-87
2023/10/31 03:21:14;;;;;;;3.45;0.90;;;10.90;99.90;;;;;;5036183;28;20045;-87
2023/10/31 03:23:41;;;;;;;1.20;0.70;;;10.80;99.90;;;;;;5035763;28;20056;-87
2023/10/31 03:26:06;;;;;;;2.90;0.63;;;10.80;99.90;;;;;;5050682;28;20032;-87
2023/10/31 03:28:32;;;;;;;9.05;1.08;;;10.80;99.90;;;;;;5072467;28;20395;-87
2023/10/31 03:30:57;;;;;;;3.85;0.80;;;10.70;99.90;;;;;;5072349;28;20045;-87
2023/10/31 03:33:23;;;;;;;3.72;1.02;;;10.70;99.90;;;;;;5072300;28;20036;-87
2023/10/31 03:35:49;;;;;;;3.22;0.70;;;10.70;99.90;;;;;;5072502;28;20126;-87
2023/10/31 03:38:15;;;;;;;3.35;1.00;;;10.70;99.90;;;;;;5072166;28;20622;-87
2023/10/31 03:40:41;;;;;;;2.30;0.70;;;10.70;99.90;;;;;;5071870;28;20048;-87
2023/10/31 03:43:06;;;;;;;5.63;1.42;;;10.60;99.90;;;;;;5055394;28;20040;-87
2023/10/31 03:45:32;;;;;;;5.82;1.05;;;10.60;99.90;;;;;;5071869;28;20093;-87
2023/10/31 03:47:58;;;;;;;1.95;1.00;;;10.60;99.90;;;;;;5055610;28;20068;-87
2023/10/31 03:50:24;;;;;;;4.90;1.08;;;10.70;99.90;;;;;;5071672;28;20465;-87
2023/10/31 03:52:49;;;;;;;2.58;0.80;;;10.60;99.90;;;;;;5055468;28;20106;-88
2023/10/31 03:55:15;;;;;;;4.90;1.65;;;10.60;99.90;;;;;;5072063;28;20458;-87
2023/10/31 03:57:40;;;;;;;3.33;1.33;;;10.60;99.90;;;;;;5055061;28;20412;-88
2023/10/31 04:00:07;;;;;;;5.53;2.00;;;10.60;99.90;;;;;;5071894;28;20036;-87
2023/10/31 04:02:33;;;;;;;4.00;1.40;;;10.60;99.90;;;;;;5055127;28;20044;-87
2023/10/31 04:04:59;;;;;;;4.97;1.38;;;10.60;99.90;;;;;;5071739;28;20089;-87
2023/10/31 04:07:24;;;;;;;1.95;0.68;;;10.70;99.90;;;;;;5071557;28;20410;-87
2023/10/31 04:09:50;;;;;;;4.88;0.90;;;10.70;99.90;;;;;;5071794;28;20127;-87
2023/10/31 04:12:16;;;;;;;1.35;0.60;;;10.60;99.90;;;;;;5071784;28;20037;-87
2023/10/31 04:14:42;;;;;;;3.30;0.85;;;10.70;99.90;;;;;;5054675;28;20032;-87
2023/10/31 04:17:07;;;;;;;3.42;0.88;;;10.70;99.90;;;;;;5056801;28;20037;-87
2023/10/31 04:19:33;;;;;;;6.53;2.20;;;10.70;99.90;;;;;;5034779;28;20424;-87
2023/10/31 04:21:59;;;;;;;1.35;0.63;;;10.70;99.90;;;;;;5034843;28;20044;-88
2023/10/31 04:24:24;;;;;;;6.32;1.00;;;10.70;99.90;;;;;;5068583;28;20101;-87
2023/10/31 04:26:50;;;;;;;1.45;0.20;;;10.70;99.90;;;;;;5071536;28;20040;-87
2023/10/31 04:29:15;;;;;;;2.40;0.60;;;10.70;99.90;;;;;;5054497;28;20506;-87
2023/10/31 04:31:41;;;;;;;1.52;0.43;;;10.70;99.90;;;;;;5071333;28;20385;-88
2023/10/31 04:34:07;;;;;;;3.20;0.80;;;10.70;99.90;;;;;;5071227;28;20068;-88
2023/10/31 04:36:33;;;;;;;1.85;0.35;;;10.70;99.90;;;;;;5054503;28;20044;-87
2023/10/31 04:38:58;;;;;;;1.65;0.40;;;10.70;99.90;;;;;;5071343;28;20123;-88
2023/10/31 04:41:24;;;;;;;0.80;0.25;;;10.70;99.90;;;;;;5070833;28;20526;-88
2023/10/31 04:43:50;;;;;;;1.55;0.63;;;10.70;99.90;;;;;;5054510;28;21439;-88
2023/10/31 04:46:16;;;;;;;5.15;0.80;;;10.70;99.90;;;;;;5071271;28;20094;-88
2023/10/31 04:48:42;;;;;;;4.38;1.00;;;10.70;99.90;;;;;;5066757;28;20051;-86
2023/10/31 04:51:07;;;;;;;3.03;0.98;;;10.70;99.90;;;;;;5062496;28;20123;-87
2023/10/31 04:53:34;;;;;;;0.43;0.43;;;10.70;99.90;;;;;;5071430;28;20119;-88
2023/10/31 04:56:00;;;;;;;2.72;0.90;;;10.60;99.90;;;;;;5065917;28;20048;-87
2023/10/31 04:58:25;;;;;;;7.63;1.02;;;10.60;99.90;;;;;;5057987;28;20139;-88
2023/10/31 05:00:51;;;;;;;3.10;0.93;;;10.60;99.90;;;;;;5050047;28;20115;-88
2023/10/31 05:03:17;;;;;;;2.95;0.90;;;10.70;99.90;;;;;;5042681;28;20128;-88
2023/10/31 05:05:44;;;;;;;1.75;0.80;;;10.60;99.90;;;;;;5062243;28;20052;-88
2023/10/31 05:08:09;;;;;;;1.13;0.70;;;10.60;99.90;;;;;;5070602;28;20119;-88
2023/10/31 05:10:35;;;;;;;2.90;1.42;;;10.60;99.90;;;;;;5070361;28;20123;-88
2023/10/31 05:13:04;;;;;;;2.97;0.70;;;10.50;99.90;;;;;;5053666;28;20044;-88
2023/10/31 05:15:29;;;;;;;3.58;1.13;;;10.60;99.90;;;;;;5052529;28;20056;-88
2023/10/31 05:17:55;;;;;;;6.22;1.23;;;10.60;99.90;;;;;;5050473;28;20428;-88
2023/10/31 05:20:21;;;;;;;1.08;0.75;;;10.60;99.90;;;;;;5033871;28;20037;-88
2023/10/31 05:22:46;;;;;;;3.33;0.80;;;10.60;99.90;;;;;;5050922;28;20071;-88
2023/10/31 05:25:12;;;;;;;1.55;0.88;;;10.60;99.90;;;;;;5051210;28;20521;-89
2023/10/31 05:27:39;;;;;;;1.60;0.63;;;10.60;99.90;;;;;;5071182;28;20039;-88
2023/10/31 05:30:05;;;;;;;1.80;0.75;;;10.50;99.90;;;;;;5071005;28;20040;-88
2023/10/31 05:32:30;;;;;;;0.50;0.40;;;10.50;99.90;;;;;;5053400;28;20032;-88
2023/10/31 05:34:56;;;;;;;5.28;0.90;;;10.50;99.90;;;;;;5053655;28;20044;-88
2023/10/31 05:37:22;;;;;;;3.78;1.10;;;10.50;99.90;;;;;;5053305;28;20101;-88
2023/10/31 05:39:48;;;;;;;4.38;0.98;;;10.50;99.90;;;;;;5053345;28;20420;-88
2023/10/31 05:42:14;;;;;;;3.85;1.10;;;10.60;99.90;;;;;;5053664;28;20040;-87
2023/10/31 05:44:40;;;;;;;2.47;0.80;;;10.50;99.90;;;;;;5053314;28;20059;-87
2023/10/31 05:47:05;;;;;;;4.22;0.95;;;10.50;99.90;;;;;;5053413;28;20044;-88
2023/10/31 05:49:31;;;;;;;4.28;1.00;;;10.50;99.90;;;;;;5053698;28;20045;-88
2023/10/31 05:51:56;;;;;;;4.43;1.10;;;10.50;99.90;;;;;;5053615;28;20059;-87
2023/10/31 05:54:22;;;;;;;3.60;0.98;;;10.50;99.90;;;;;;5069959;28;20461;-87
2023/10/31 05:56:47;;;;;;;4.88;1.33;;;10.50;99.90;;;;;;5053489;28;20045;-87
2023/10/31 05:59:13;;;;;;;11.77;1.48;;;10.50;99.90;;;;;;5069967;28;20074;-88
2023/10/31 06:01:39;;;;;;;1.25;0.52;;;10.50;99.90;;;;;;5053109;28;20033;-88
2023/10/31 06:04:05;;;;;;;3.97;1.17;;;10.50;99.90;;;;;;5053294;28;20049;-88
2023/10/31 06:06:36;;;;;;;2.95;1.33;;;10.50;99.90;;;;;;5053351;28;20097;-88
2023/10/31 06:09:02;;;;;;;2.23;0.97;;;10.50;99.90;;;;;;5061642;28;20525;-87
2023/10/31 06:11:27;;;;;;;1.75;0.85;;;10.50;99.90;;;;;;5044211;28;20037;-88
2023/10/31 06:13:53;;;;;;;3.88;1.13;;;10.50;99.90;;;;;;5046132;28;20507;-88
2023/10/31 06:16:19;;;;;;;2.28;0.73;;;10.50;99.90;;;;;;5045707;28;20052;-88
2023/10/31 06:18:44;;;;;;;2.13;0.52;;;10.50;99.90;;;;;;5030707;28;20115;-88
2023/10/31 06:21:10;;;;;;;2.70;0.88;;;10.50;99.90;;;;;;5030771;28;20067;-87
2023/10/31 06:23:39;;;;;;;7.13;1.40;;;10.50;99.90;;;;;;5046846;28;20550;-87
2023/10/31 06:26:05;;;;;;;2.10;0.85;;;10.50;99.90;;;;;;5065026;28;20389;-87
2023/10/31 06:28:34;;;;;;;2.33;0.88;;;10.50;99.90;;;;;;5070842;28;20040;-87
2023/10/31 06:31:00;;;;;;;6.75;1.10;;;10.50;99.90;;;;;;5070901;28;20047;-88
2023/10/31 06:33:26;;;;;;;2.97;1.02;;;10.50;99.90;;;;;;5071190;28;20404;-87
2023/10/31 06:35:53;;;;;;;2.70;1.00;;;10.40;99.90;;;;;;5070934;28;20325;-88
2023/10/31 06:38:19;;;;;;;2.75;1.08;;;10.50;99.90;;;;;;5054260;28;20404;-87
2023/10/31 06:40:45;;;;;;;5.93;1.58;;;10.50;99.90;;;;;;5053767;28;20500;-88
2023/10/31 06:43:10;;;;;;;4.13;1.17;;;10.40;99.90;;;;;;5056081;28;20086;-88
2023/10/31 06:45:36;;;;;;;4.47;1.85;;;10.40;99.90;;;;;;5073358;28;20037;-88
2023/10/31 06:48:02;;;;;;;5.53;1.48;;;10.40;99.90;;;;;;5066313;28;20582;-88
2023/10/31 06:50:28;;;;;;;4.10;1.15;;;10.40;99.90;;;;;;5045987;28;20072;-88
2023/10/31 06:52:54;;;;;;;4.03;1.02;;;10.40;99.90;;;;;;5056649;28;20503;-88
2023/10/31 06:55:20;;;;;;;4.00;1.42;;;10.40;99.90;;;;;;5040575;28;20039;-88
2023/10/31 06:57:45;;;;;;;3.47;1.10;;;10.40;99.90;;;;;;5036584;28;20397;-88
2023/10/31 07:00:12;;;;;;;3.20;1.10;;;10.40;99.90;;;;;;5051789;28;20381;-88
2023/10/31 07:02:38;;;;;;;3.97;1.17;;;10.40;99.90;;;;;;5056361;28;20072;-89
2023/10/31 07:05:03;;;;;;;3.47;0.88;;;10.40;99.90;;;;;;5050459;28;20068;-88
2023/10/31 07:07:29;;;;;;;4.13;0.88;;;10.50;99.90;;;;;;5062163;28;20093;-88
2023/10/31 07:09:55;;;;;;;5.20;0.77;;;10.50;99.90;;;;;;5073175;28;20415;-88
2023/10/31 07:12:21;;;;;;;1.15;0.43;;;10.40;99.90;;;;;;5047921;28;20037;-87
2023/10/31 07:14:47;;;;;;;10.13;1.38;;;10.50;99.90;;;;;;5064801;28;20086;-88
2023/10/31 07:17:13;;;;;;;3.75;1.10;;;10.50;99.90;;;;;;5070988;28;20071;-88
2023/10/31 07:19:38;;;;;;;1.85;0.73;;;10.50;99.90;;;;;;5063329;28;20032;-88
2023/10/31 07:22:04;;;;;;;4.13;1.30;;;10.50;99.90;;;;;;5055951;28;20043;-88
2023/10/31 07:24:29;;;;;;;8.63;3.20;;;10.50;99.90;;;;;;5055876;28;20040;-88
2023/10/31 07:26:55;;;;;;;7.65;3.40;;;10.60;99.90;;;;;;5055105;28;20044;-87
2023/10/31 07:29:21;;;;;;;4.65;1.67;;;10.70;99.90;;;;;;5044999;28;20037;-88
2023/10/31 07:31:47;;;;;;;2.63;1.02;;;10.70;99.90;;;;;;5044805;28;20036;-88
2023/10/31 07:34:12;;;;;;;2.92;1.02;;;10.70;99.90;;;;;;5052909;28;20040;-87
2023/10/31 07:36:39;;;;;;;4.63;1.58;;;10.70;99.90;;;;;;5052218;28;20040;-88
2023/10/31 07:39:05;;;;;;;4.80;1.20;;;10.70;99.90;;;;;;5052769;28;20508;-88
2023/10/31 07:41:30;;;;;;;2.08;1.13;;;10.70;99.90;;;;;;5052628;28;20055;-87
2023/10/31 07:43:56;;;;;;;4.30;1.20;;;10.70;99.90;;;;;;5052981;28;20048;-87
2023/10/31 07:46:23;;;;;;;3.78;1.33;;;10.70;99.90;;;;;;5069337;28;20411;-88
2023/10/31 07:48:48;;;;;;;8.15;1.27;;;10.80;99.90;;;;;;5052410;28;20127;-88
2023/10/31 07:51:14;;;;;;;3.65;0.88;;;10.80;99.90;;;;;;5045404;28;20124;-88
2023/10/31 07:53:41;;;;;;;3.95;1.25;;;10.80;99.90;;;;;;5043906;28;20052;-89
2023/10/31 07:56:18;;;;;;;4.95;0.82;;;10.80;99.90;;;;;;5053150;28;20086;-88
2023/10/31 07:58:44;;;;;;;2.58;0.90;;;10.70;99.90;;;;;;5051544;28;20040;-88
2023/10/31 08:01:10;;;;;;;2.22;1.10;;;10.80;99.90;;;;;;5051313;28;20045;-88
2023/10/31 08:03:39;;;;;;;0.70;0.52;;;10.80;99.90;;;;;;5043208;28;20100;-88
2023/10/31 08:06:06;;;;;;;2.20;1.13;;;10.80;99.90;;;;;;5041421;28;20106;-88
2023/10/31 08:08:33;;;;;;;1.67;0.73;;;10.80;99.90;;;;;;5054702;28;20091;-87
2023/10/31 08:10:59;;;;;;;3.42;0.98;;;10.80;99.90;;;;;;5071409;28;20499;-87
2023/10/31 08:13:25;;;;;;;5.07;0.98;;;10.90;99.90;;;;;;5055124;28;20032;-88
2023/10/31 08:15:50;;;;;;;1.38;0.73;;;10.90;99.90;;;;;;5042679;28;20521;-88
2023/10/31 08:18:16;;;;;;;5.32;0.70;;;10.90;99.90;;;;;;5050891;28;20040;-88
2023/10/31 08:20:43;;;;;;;0.80;0.35;;;11.00;99.90;;;;;;5071439;28;20560;-88
2023/10/31 08:23:09;;;;;;;2.00;0.70;;;11.00;99.90;;;;;;5054677;28;20044;-88
2023/10/31 08:25:34;;;;;;;1.90;0.63;;;11.10;99.90;;;;;;5071144;28;20032;-88
2023/10/31 08:28:00;;;;;;;2.53;0.98;;;11.20;99.90;;;;;;5054828;28;20321;-88
2023/10/31 08:30:26;;;;;;;2.95;0.98;;;11.30;99.90;;;;;;5071005;28;20510;-88
2023/10/31 08:32:51;;;;;;;4.28;1.58;;;11.40;99.90;;;;;;5054905;28;20032;-87
2023/10/31 08:35:17;;;;;;;1.77;0.90;;;11.50;99.90;;;;;;5039191;28;20519;-88
2023/10/31 08:37:42;;;;;;;2.15;0.90;;;11.60;99.90;;;;;;5033648;28;20127;-88
2023/10/31 08:40:08;;;;;;;4.03;1.00;;;11.70;99.90;;;;;;5034347;28;20037;-88
2023/10/31 08:42:34;;;;;;;2.92;1.10;;;11.70;99.90;;;;;;5034863;28;20123;-88
2023/10/31 08:44:59;;;;;;;1.38;0.70;;;11.80;99.90;;;;;;5040660;28;20103;-88
2023/10/31 08:47:25;;;;;;;11.40;1.45;;;11.90;99.90;;;;;;5067413;28;20044;-89
2023/10/31 08:49:51;;;;;;;2.10;0.65;;;12.00;99.90;;;;;;5054731;28;20035;-89
2023/10/31 08:52:17;;;;;;;3.35;0.68;;;12.00;99.90;;;;;;5033042;28;20055;-88
2023/10/31 08:54:43;;;;;;;4.60;1.20;;;12.10;99.90;;;;;;5053886;28;20111;-88
2023/10/31 08:57:09;;;;;;;1.17;0.50;;;12.10;99.90;;;;;;5036061;28;20463;-88
2023/10/31 08:59:35;;;;;;;1.75;0.60;;;12.10;99.90;;;;;;5037096;28;20029;-89
2023/10/31 09:02:01;;;;;;;3.03;0.75;;;12.20;99.90;;;;;;5052536;28;20235;-88
2023/10/31 09:04:27;;;;;;;3.90;1.00;;;12.20;99.90;;;;;;5052355;28;20460;-88
2023/10/31 09:06:53;;;;;;;4.88;1.13;;;12.20;99.90;;;;;;5033907;28;20040;-89
2023/10/31 09:09:19;;;;;;;10.27;1.23;;;12.20;99.90;;;;;;5042387;28;20040;-88
2023/10/31 09:11:44;;;;;;;3.15;0.75;;;12.20;99.90;;;;;;5054143;28;20404;-89
2023/10/31 09:14:10;;;;;;;2.17;0.73;;;12.20;99.90;;;;;;5053881;28;20525;-89
2023/10/31 09:16:35;;;;;;;2.65;0.68;;;12.30;99.90;;;;;;5059824;28;20072;-88
2023/10/31 09:19:01;;;;;;;1.85;0.57;;;12.40;99.90;;;;;;5034499;28;20076;-89
2023/10/31 09:21:27;;;;;;;2.63;0.40;;;12.40;99.90;;;;;;5050609;28;20043;-88
2023/10/31 09:23:52;;;;;;;2.83;0.55;;;12.40;99.90;;;;;;5033878;28;20460;-88
2023/10/31 09:26:18;;;;;;;2.92;0.52;;;12.50;99.90;;;;;;5050151;28;20044;-88
2023/10/31 09:28:49;;;;;;;3.72;0.65;;;12.50;99.90;;;;;;5058938;28;20036;-88
2023/10/31 09:31:17;;;;;;;6.53;1.33;;;12.50;99.90;;;;;;5066026;28;20048;-88
2023/10/31 09:33:43;;;;;;;1.35;0.20;;;12.60;99.90;;;;;;5037511;28;20159;-89
2023/10/31 09:36:10;;;;;;;6.00;0.57;;;12.60;99.90;;;;;;5053978;28;20036;-89
2023/10/31 09:38:35;;;;;;;4.65;0.52;;;12.60;99.90;;;;;;5070640;28;20139;-88
2023/10/31 09:41:01;;;;;;;4.00;0.47;;;12.70;99.90;;;;;;5053484;28;20546;-88
2023/10/31 09:43:27;;;;;;;9.02;1.30;;;12.80;99.90;;;;;;5044281;28;20140;-88
2023/10/31 09:45:53;;;;;;;3.63;0.52;;;12.90;99.90;;;;;;5062972;28;20047;-89
2023/10/31 09:48:22;;;;;;;4.15;0.65;;;13.00;99.90;;;;;;5053474;28;20039;-88
2023/10/31 09:50:47;;;;;;;4.47;0.47;;;13.00;99.90;;;;;;5070413;28;20498;-88
2023/10/31 09:53:18;;;;;;;4.88;1.02;;;12.90;99.90;;;;;;5070284;28;20496;-88
2023/10/31 09:55:44;;;;;;;1.75;0.38;;;12.90;99.90;;;;;;5069262;28;20076;-88
2023/10/31 09:58:11;;;;;;;3.25;0.77;;;12.90;99.90;;;;;;5062454;28;20056;-88
2023/10/31 10:00:37;;;;;;;1.98;0.20;;;13.00;99.90;;;;;;5053390;28;20048;-86
2023/10/31 10:03:03;;;;;;;1.08;0.20;;;13.10;99.90;;;;;;5072582;28;20097;-89
2023/10/31 10:05:32;;;;;;;7.88;0.47;;;13.10;99.90;;;;;;5071433;28;20082;-89
2023/10/31 10:07:58;;;;;;;6.93;1.35;;;13.20;99.90;;;;;;5054876;28;20522;-89
2023/10/31 10:10:24;;;;;;;3.53;0.63;;;13.40;99.90;;;;;;5071776;28;20522;-89
2023/10/31 10:12:52;;;;;;;0.73;0.10;;;13.40;99.90;;;;;;5054443;28;20504;-89
2023/10/31 10:15:18;;;;;;;3.60;0.65;;;13.50;99.90;;;;;;5071288;28;20036;-89
2023/10/31 10:17:52;;;;;;;1.17;0.20;;;13.40;99.90;;;;;;5059640;28;20120;-89
2023/10/31 10:20:18;;;;;;;5.63;1.08;;;13.40;99.90;;;;;;5067111;28;20055;-89
2023/10/31 10:22:44;;;;;;;3.50;0.70;;;13.40;99.90;;;;;;5054363;28;20032;-89
2023/10/31 10:25:20;;;;;;;2.17;0.38;;;13.30;99.90;;;;;;5054381;28;20416;-89
2023/10/31 10:27:46;;;;;;;5.22;0.40;;;13.20;99.90;;;;;;5043345;28;20512;-89
2023/10/31 10:30:13;;;;;;;3.60;0.30;;;12.90;99.90;;;;;;5066661;28;20058;-89
2023/10/31 10:32:39;;;;;;;1.95;0.20;;;12.80;99.90;;;;;;5038653;28;20079;-89
2023/10/31 10:35:07;;;;;;;5.13;0.70;;;12.70;99.90;;;;;;5058993;28;20044;-89
2023/10/31 10:37:38;;;;;;;1.88;0.17;;;12.80;99.90;;;;;;5054050;28;20044;-88
2023/10/31 10:40:06;;;;;;;3.30;0.50;;;12.80;99.90;;;;;;5053887;28;20048;-88
2023/10/31 10:42:36;;;;;;;1.65;0.20;;;12.80;99.90;;;;;;5039725;28;20095;-89
2023/10/31 10:45:04;;;;;;;1.08;0.10;;;12.80;99.90;;;;;;5039510;28;20111;-88
2023/10/31 10:47:32;;;;;;;0.63;0.20;;;12.80;99.90;;;;;;5040867;28;20033;-88
2023/10/31 10:50:02;;;;;;;0.52;0.20;;;12.80;99.90;;;;;;5033754;28;20044;-89
2023/10/31 10:52:42;;;;;;;1.80;0.30;;;12.80;99.90;;;;;;5035876;28;20450;-89
2023/10/31 10:55:12;;;;;;;0.10;0.10;;;12.70;99.90;;;;;;5054068;28;20033;-89
2023/10/31 10:57:50;;;;;;;3.03;0.60;;;12.70;99.90;;;;;;5052962;28;20127;-88
2023/10/31 11:00:16;;;;;;;1.80;0.32;;;12.70;99.90;;;;;;5036128;28;20047;-89
2023/10/31 11:02:43;;;;;;;3.40;0.70;;;12.70;99.90;;;;;;5036233;28;20037;-89
2023/10/31 11:05:09;;;;;;;1.58;0.35;;;12.80;99.90;;;;;;5036587;28;20147;-89
2023/10/31 11:07:37;;;;;;;0.95;0.32;;;12.80;99.90;;;;;;5035805;28;20037;-89
2023/10/31 11:10:04;;;;;;;2.40;0.68;;;12.80;99.90;;;;;;5052058;28;20068;-89
2023/10/31 11:12:30;;;;;;;4.53;1.35;;;12.80;99.90;;;;;;5052858;28;20063;-88
2023/10/31 11:14:58;;;;;;;0.70;0.40;;;12.80;99.90;;;;;;5052584;28;20408;-88
2023/10/31 11:17:27;;;;;;;2.10;0.15;;;12.80;99.90;;;;;;5052226;28;20507;-89
2023/10/31 11:19:55;;;;;;;0.77;0.20;;;12.70;99.90;;;;;;5052467;28;20048;-89
2023/10/31 11:22:21;;;;;;;1.90;0.52;;;12.70;99.90;;;;;;5035953;28;20105;-88
2023/10/31 11:24:49;;;;;;;2.90;0.68;;;12.70;99.90;;;;;;5035649;28;20033;-89
2023/10/31 11:27:16;;;;;;;4.25;0.70;;;12.80;99.90;;;;;;5035844;28;20431;-89
2023/10/31 11:29:42;;;;;;;2.38;0.40;;;12.80;99.90;;;;;;5055551;28;20041;-89
2023/10/31 11:32:11;;;;;;;0.08;0.08;;;12.80;99.90;;;;;;5056254;28;20036;-89
2023/10/31 11:34:39;;;;;;;2.42;0.30;;;12.80;99.90;;;;;;5056508;28;20037;-89
2023/10/31 11:37:31;;;;;;;2.33;0.30;;;12.80;99.90;;;;;;5072699;28;20040;-89
2023/10/31 11:40:16;;;;;;;2.17;0.30;;;12.80;99.90;;;;;;5055685;28;20051;-89
2023/10/31 11:42:42;;;;;;;6.30;0.73;;;12.80;99.90;;;;;;5072537;28;20371;-88
2023/10/31 11:45:08;;;;;;;2.95;0.40;;;12.90;99.90;;;;;;5055664;28;20522;-88
2023/10/31 11:47:47;;;;;;;4.78;1.02;;;12.90;99.90;;;;;;5055290;28;20040;-89
2023/10/31 11:50:13;;;;;;;0.52;0.20;;;12.90;99.90;;;;;;5055342;28;20040;-89
2023/10/31 11:52:39;;;;;;;2.08;0.77;;;12.90;99.90;;;;;;5039291;28;20033;-89
2023/10/31 11:55:09;;;;;;;1.77;0.30;;;12.80;99.90;;;;;;5072272;28;20082;-89
2023/10/31 11:57:34;;;;;;;2.55;0.85;;;12.80;99.90;;;;;;5072016;28;20037;-89
2023/10/31 12:00:00;;;;;;;2.85;1.02;;;12.80;99.90;;;;;;5055377;28;20036;-88
2023/10/31 12:02:26;;;;;;;2.50;0.45;;;12.80;99.90;;;;;;5055215;28;20037;-89
2023/10/31 12:05:05;;;;;;;5.43;1.00;;;12.80;99.90;;;;;;5055335;28;20060;-89
2023/10/31 12:07:44;;;;;;;2.25;0.30;;;12.90;99.90;;;;;;5055188;28;20037;-89
2023/10/31 12:10:11;;;;;;;0.90;0.22;;;12.90;99.90;;;;;;5054872;28;20028;-89
2023/10/31 12:12:36;;;;;;;5.32;0.90;;;12.90;99.90;;;;;;5071689;28;20028;-89
2023/10/31 12:15:06;;;;;;;1.02;0.20;;;13.00;99.90;;;;;;5055099;28;20048;-88
2023/10/31 12:17:32;;;;;;;5.88;0.90;;;13.10;99.90;;;;;;5036508;28;20431;-89
2023/10/31 12:20:02;;;;;;;2.35;0.30;;;13.40;99.90;;;;;;5034845;28;20124;-89
2023/10/31 12:22:28;;;;;;;1.10;0.20;;;13.60;99.90;;;;;;5032135;28;20405;-89
2023/10/31 12:25:01;;;;;;;1.02;0.43;;;14.00;99.90;;;;;;5051322;28;20062;-90
2023/10/31 12:27:44;;;;;;;0.98;0.20;;;14.20;99.90;;;;;;5032976;28;20512;-89
2023/10/31 12:30:11;;;;;;;1.15;0.20;;;14.60;99.90;;;;;;5032095;28;20044;-89
2023/10/31 12:32:37;;;;;;;1.20;0.15;;;14.80;99.90;;;;;;5034787;28;20040;-90
2023/10/31 12:35:04;;;;;;;0.73;0.22;;;14.80;99.90;;;;;;5050948;28;20037;-90
2023/10/31 12:37:30;;;;;;;1.60;0.20;;;14.80;99.90;;;;;;5034861;28;20037;-90
2023/10/31 12:39:57;;;;;;;2.63;0.60;;;14.60;99.90;;;;;;5034495;28;20033;-89
2023/10/31 12:42:29;;;;;;;2.67;0.32;;;14.50;99.90;;;;;;5050912;28;20498;-90